Terminal Aerodrome Forecast
Issued by NWS

Home | Current Version | Previous Version | Text Only | Print | Product List | Glossary On
Versions: 1 2 3 4 5 6 7 8 9 10 11 12 13 14 15 16 17 18 19 20 21 22 23 24 25 26 27 28
000
FTUS42 TJSJ 191123
TAFJPS
TAF
TJPS 191123Z 1912/2012 VRB04KT P6SM OVC120
     FM191400 18009KT P6SM FEW030
     FM191600 19010KT P6SM VCSH SCT030 SCT050
     FM191900 VRB12G20KT P6SM VCTS SCT030CB BKN050
     FM192200 VRB05KT P6SM FEW025 FEW050
     FM200400 00000KT P6SM SKC=

USA.gov is the U.S. government's official web portal to all federal, state and local government web resources and services.